sensor_id;sensor_type;location;lat;lon;timestamp;temperature;humidity
49184;DHT22;35021;49.214;12.270;2023-08-12T00:00:18;23.60;55.90
49184;DHT22;35021;49.214;12.270;2023-08-12T00:02:46;23.60;55.80
49184;DHT22;35021;49.214;12.270;2023-08-12T00:05:13;23.60;55.70
49184;DHT22;35021;49.214;12.270;2023-08-12T00:07:40;23.60;55.70
49184;DHT22;35021;49.214;12.270;2023-08-12T00:10:12;23.60;55.60
49184;DHT22;35021;49.214;12.270;2023-08-12T00:12:39;23.60;55.60
49184;DHT22;35021;49.214;12.270;2023-08-12T00:15:07;23.60;55.60
49184;DHT22;35021;49.214;12.270;2023-08-12T00:17:35;23.60;55.60
49184;DHT22;35021;49.214;12.270;2023-08-12T00:20:09;23.60;55.60
49184;DHT22;35021;49.214;12.270;2023-08-12T00:22:37;23.50;55.50
49184;DHT22;35021;49.214;12.270;2023-08-12T00:25:05;23.50;55.50
49184;DHT22;35021;49.214;12.270;2023-08-12T00:27:33;23.50;55.60
49184;DHT22;35021;49.214;12.270;2023-08-12T00:30:00;23.50;55.50
49184;DHT22;35021;49.214;12.270;2023-08-12T00:32:27;23.50;55.50
49184;DHT22;35021;49.214;12.270;2023-08-12T00:34:53;23.50;55.60
49184;DHT22;35021;49.214;12.270;2023-08-12T00:37:20;23.50;55.60
49184;DHT22;35021;49.214;12.270;2023-08-12T00:39:47;23.40;55.50
49184;DHT22;35021;49.214;12.270;2023-08-12T00:42:14;23.50;55.50
49184;DHT22;35021;49.214;12.270;2023-08-12T00:44:41;23.50;55.50
49184;DHT22;35021;49.214;12.270;2023-08-12T00:47:07;23.50;55.50
49184;DHT22;35021;49.214;12.270;2023-08-12T00:49:35;23.50;55.50
49184;DHT22;35021;49.214;12.270;2023-08-12T00:52:04;23.50;55.40
49184;DHT22;35021;49.214;12.270;2023-08-12T00:54:31;23.50;55.30
49184;DHT22;35021;49.214;12.270;2023-08-12T00:56:58;23.50;55.30
49184;DHT22;35021;49.214;12.270;2023-08-12T00:59:25;23.50;55.20
49184;DHT22;35021;49.214;12.270;2023-08-12T01:01:52;23.50;55.20
49184;DHT22;35021;49.214;12.270;2023-08-12T01:04:19;23.50;55.10
49184;DHT22;35021;49.214;12.270;2023-08-12T01:06:46;23.50;55.10
49184;DHT22;35021;49.214;12.270;2023-08-12T01:09:13;23.50;55.00
49184;DHT22;35021;49.214;12.270;2023-08-12T01:12:19;23.50;55.00
49184;DHT22;35021;49.214;12.270;2023-08-12T01:15:13;23.50;55.00
49184;DHT22;35021;49.214;12.270;2023-08-12T01:17:43;23.50;54.90
49184;DHT22;35021;49.214;12.270;2023-08-12T01:20:11;23.50;54.90
49184;DHT22;35021;49.214;12.270;2023-08-12T01:22:44;23.50;54.80
49184;DHT22;35021;49.214;12.270;2023-08-12T01:25:11;23.50;54.80
49184;DHT22;35021;49.214;12.270;2023-08-12T01:27:38;23.50;54.70
49184;DHT22;35021;49.214;12.270;2023-08-12T01:30:06;23.50;54.60
49184;DHT22;35021;49.214;12.270;2023-08-12T01:32:45;23.50;54.60
49184;DHT22;35021;49.214;12.270;2023-08-12T01:35:14;23.50;54.60
49184;DHT22;35021;49.214;12.270;2023-08-12T01:37:45;23.50;54.50
49184;DHT22;35021;49.214;12.270;2023-08-12T01:40:14;23.50;54.40
49184;DHT22;35021;49.214;12.270;2023-08-12T01:42:42;23.50;54.40
49184;DHT22;35021;49.214;12.270;2023-08-12T01:45:09;23.50;54.30
49184;DHT22;35021;49.214;12.270;2023-08-12T01:47:37;23.50;54.30
49184;DHT22;35021;49.214;12.270;2023-08-12T01:50:04;23.50;54.30
49184;DHT22;35021;49.214;12.270;2023-08-12T01:52:33;23.50;54.30
49184;DHT22;35021;49.214;12.270;2023-08-12T01:54:59;23.50;54.30
49184;DHT22;35021;49.214;12.270;2023-08-12T01:57:26;23.50;54.30
49184;DHT22;35021;49.214;12.270;2023-08-12T01:59:53;23.50;54.20
49184;DHT22;35021;49.214;12.270;2023-08-12T02:02:20;23.50;54.20
49184;DHT22;35021;49.214;12.270;2023-08-12T02:04:47;23.50;54.20
49184;DHT22;35021;49.214;12.270;2023-08-12T02:07:14;23.50;54.10
49184;DHT22;35021;49.214;12.270;2023-08-12T02:09:41;23.50;54.10
49184;DHT22;35021;49.214;12.270;2023-08-12T02:12:08;23.40;53.90
49184;DHT22;35021;49.214;12.270;2023-08-12T02:14:34;23.40;53.90
49184;DHT22;35021;49.214;12.270;2023-08-12T02:17:03;23.40;53.80
49184;DHT22;35021;49.214;12.270;2023-08-12T02:19:33;23.50;53.80
49184;DHT22;35021;49.214;12.270;2023-08-12T02:22:01;23.40;53.80
49184;DHT22;35021;49.214;12.270;2023-08-12T02:24:28;23.50;53.80
49184;DHT22;35021;49.214;12.270;2023-08-12T02:26:56;23.50;53.80
49184;DHT22;35021;49.214;12.270;2023-08-12T02:29:22;23.40;53.80
49184;DHT22;35021;49.214;12.270;2023-08-12T02:31:49;23.50;53.70
49184;DHT22;35021;49.214;12.270;2023-08-12T02:34:16;23.40;53.60
49184;DHT22;35021;49.214;12.270;2023-08-12T02:36:43;23.50;53.60
49184;DHT22;35021;49.214;12.270;2023-08-12T02:39:10;23.50;53.50
49184;DHT22;35021;49.214;12.270;2023-08-12T02:41:36;23.40;53.40
49184;DHT22;35021;49.214;12.270;2023-08-12T02:44:03;23.40;53.30
49184;DHT22;35021;49.214;12.270;2023-08-12T02:46:30;23.50;53.40
49184;DHT22;35021;49.214;12.270;2023-08-12T02:48:57;23.40;53.30
49184;DHT22;35021;49.214;12.270;2023-08-12T02:51:24;23.40;53.20
49184;DHT22;35021;49.214;12.270;2023-08-12T02:53:51;23.40;53.20
49184;DHT22;35021;49.214;12.270;2023-08-12T02:56:18;23.40;53.10
49184;DHT22;35021;49.214;12.270;2023-08-12T02:58:44;23.40;53.10
49184;DHT22;35021;49.214;12.270;2023-08-12T03:01:11;23.40;53.00
49184;DHT22;35021;49.214;12.270;2023-08-12T03:03:38;23.40;53.00
49184;DHT22;35021;49.214;12.270;2023-08-12T03:06:05;23.40;52.90
49184;DHT22;35021;49.214;12.270;2023-08-12T03:08:32;23.40;52.90
49184;DHT22;35021;49.214;12.270;2023-08-12T03:11:00;23.40;52.90
49184;DHT22;35021;49.214;12.270;2023-08-12T03:13:28;23.40;53.00
49184;DHT22;35021;49.214;12.270;2023-08-12T03:15:55;23.30;53.00
49184;DHT22;35021;49.214;12.270;2023-08-12T03:18:22;23.30;53.00
49184;DHT22;35021;49.214;12.270;2023-08-12T03:20:49;23.30;53.10
49184;DHT22;35021;49.214;12.270;2023-08-12T03:23:16;23.20;53.00
49184;DHT22;35021;49.214;12.270;2023-08-12T03:25:43;23.20;53.00
49184;DHT22;35021;49.214;12.270;2023-08-12T03:28:10;23.20;53.00
49184;DHT22;35021;49.214;12.270;2023-08-12T03:30:36;23.20;53.00
49184;DHT22;35021;49.214;12.270;2023-08-12T03:33:03;23.20;53.00
49184;DHT22;35021;49.214;12.270;2023-08-12T03:35:31;23.20;53.00
49184;DHT22;35021;49.214;12.270;2023-08-12T03:37:57;23.20;53.00
49184;DHT22;35021;49.214;12.270;2023-08-12T03:40:24;23.20;53.00
49184;DHT22;35021;49.214;12.270;2023-08-12T03:42:51;23.20;52.90
49184;DHT22;35021;49.214;12.270;2023-08-12T03:45:18;23.20;52.90
49184;DHT22;35021;49.214;12.270;2023-08-12T03:47:45;23.20;52.90
49184;DHT22;35021;49.214;12.270;2023-08-12T03:50:11;23.20;52.80
49184;DHT22;35021;49.214;12.270;2023-08-12T03:52:38;23.20;52.70
49184;DHT22;35021;49.214;12.270;2023-08-12T03:55:06;23.20;52.70
49184;DHT22;35021;49.214;12.270;2023-08-12T03:57:33;23.20;52.70
49184;DHT22;35021;49.214;12.270;2023-08-12T04:00:00;23.20;52.70
49184;DHT22;35021;49.214;12.270;2023-08-12T04:02:27;23.20;53.10
49184;DHT22;35021;49.214;12.270;2023-08-12T04:04:53;23.20;52.60
49184;DHT22;35021;49.214;12.270;2023-08-12T04:07:20;23.20;52.60
49184;DHT22;35021;49.214;12.270;2023-08-12T04:09:47;23.20;52.60
49184;DHT22;35021;49.214;12.270;2023-08-12T04:12:14;23.20;52.50
49184;DHT22;35021;49.214;12.270;2023-08-12T04:14:41;23.20;52.50
49184;DHT22;35021;49.214;12.270;2023-08-12T04:17:08;23.20;52.50
49184;DHT22;35021;49.214;12.270;2023-08-12T04:19:35;23.20;52.40
49184;DHT22;35021;49.214;12.270;2023-08-12T04:22:02;23.20;52.40
49184;DHT22;35021;49.214;12.270;2023-08-12T04:24:29;23.20;52.40
49184;DHT22;35021;49.214;12.270;2023-08-12T04:26:56;23.20;52.30
49184;DHT22;35021;49.214;12.270;2023-08-12T04:29:23;23.20;52.20
49184;DHT22;35021;49.214;12.270;2023-08-12T04:31:49;23.20;52.10
49184;DHT22;35021;49.214;12.270;2023-08-12T04:34:16;23.20;52.00
49184;DHT22;35021;49.214;12.270;2023-08-12T04:36:43;23.20;52.00
49184;DHT22;35021;49.214;12.270;2023-08-12T04:39:10;23.20;52.00
49184;DHT22;35021;49.214;12.270;2023-08-12T04:41:37;23.20;52.00
49184;DHT22;35021;49.214;12.270;2023-08-12T04:44:05;23.20;52.00
49184;DHT22;35021;49.214;12.270;2023-08-12T04:46:32;23.20;52.00
49184;DHT22;35021;49.214;12.270;2023-08-12T04:48:59;23.20;52.00
49184;DHT22;35021;49.214;12.270;2023-08-12T04:51:26;23.20;52.00
49184;DHT22;35021;49.214;12.270;2023-08-12T04:53:53;23.20;52.00
49184;DHT22;35021;49.214;12.270;2023-08-12T04:56:20;23.20;52.00
49184;DHT22;35021;49.214;12.270;2023-08-12T04:58:47;23.20;52.00
49184;DHT22;35021;49.214;12.270;2023-08-12T05:01:14;23.20;52.00
49184;DHT22;35021;49.214;12.270;2023-08-12T05:03:41;23.20;52.00
49184;DHT22;35021;49.214;12.270;2023-08-12T05:06:07;23.20;52.00
49184;DHT22;35021;49.214;12.270;2023-08-12T05:08:34;23.20;52.10
49184;DHT22;35021;49.214;12.270;2023-08-12T05:11:01;23.20;52.20
49184;DHT22;35021;49.214;12.270;2023-08-12T05:13:28;23.20;52.20
49184;DHT22;35021;49.214;12.270;2023-08-12T05:15:56;23.20;52.40
49184;DHT22;35021;49.214;12.270;2023-08-12T05:18:23;23.20;52.50
49184;DHT22;35021;49.214;12.270;2023-08-12T05:20:52;23.10;52.60
49184;DHT22;35021;49.214;12.270;2023-08-12T05:23:22;23.10;52.70
49184;DHT22;35021;49.214;12.270;2023-08-12T05:25:49;23.10;52.80
49184;DHT22;35021;49.214;12.270;2023-08-12T05:28:19;23.10;52.90
49184;DHT22;35021;49.214;12.270;2023-08-12T05:30:46;23.10;53.10
49184;DHT22;35021;49.214;12.270;2023-08-12T05:33:13;23.10;53.20
49184;DHT22;35021;49.214;12.270;2023-08-12T05:35:40;23.00;53.30
49184;DHT22;35021;49.214;12.270;2023-08-12T05:38:06;23.00;53.50
49184;DHT22;35021;49.214;12.270;2023-08-12T05:40:33;23.00;53.50
49184;DHT22;35021;49.214;12.270;2023-08-12T05:43:00;23.00;53.70
49184;DHT22;35021;49.214;12.270;2023-08-12T05:45:27;23.00;53.80
49184;DHT22;35021;49.214;12.270;2023-08-12T05:47:54;23.00;53.90
49184;DHT22;35021;49.214;12.270;2023-08-12T05:50:20;23.00;54.00
49184;DHT22;35021;49.214;12.270;2023-08-12T05:52:47;23.00;54.10
49184;DHT22;35021;49.214;12.270;2023-08-12T05:55:14;23.00;54.20
49184;DHT22;35021;49.214;12.270;2023-08-12T05:57:41;23.00;54.30
49184;DHT22;35021;49.214;12.270;2023-08-12T06:00:08;23.00;54.30
49184;DHT22;35021;49.214;12.270;2023-08-12T06:02:35;23.00;54.40
49184;DHT22;35021;49.214;12.270;2023-08-12T06:05:02;23.10;54.50
49184;DHT22;35021;49.214;12.270;2023-08-12T06:07:29;23.10;54.60
49184;DHT22;35021;49.214;12.270;2023-08-12T06:09:56;23.10;54.60
49184;DHT22;35021;49.214;12.270;2023-08-12T06:12:23;23.10;54.70
49184;DHT22;35021;49.214;12.270;2023-08-12T06:14:50;23.10;54.80
49184;DHT22;35021;49.214;12.270;2023-08-12T06:17:16;23.10;54.80
49184;DHT22;35021;49.214;12.270;2023-08-12T06:19:43;23.10;54.90
49184;DHT22;35021;49.214;12.270;2023-08-12T06:22:10;23.00;55.00
49184;DHT22;35021;49.214;12.270;2023-08-12T06:24:38;23.00;55.00
49184;DHT22;35021;49.214;12.270;2023-08-12T06:27:05;23.00;55.20
49184;DHT22;35021;49.214;12.270;2023-08-12T06:29:32;23.00;55.30
49184;DHT22;35021;49.214;12.270;2023-08-12T06:31:59;23.00;55.30
49184;DHT22;35021;49.214;12.270;2023-08-12T06:34:26;23.00;55.30
49184;DHT22;35021;49.214;12.270;2023-08-12T06:36:52;23.00;55.40
49184;DHT22;35021;49.214;12.270;2023-08-12T06:39:19;23.00;55.50
49184;DHT22;35021;49.214;12.270;2023-08-12T06:41:46;23.00;55.60
49184;DHT22;35021;49.214;12.270;2023-08-12T06:44:13;22.90;55.70
49184;DHT22;35021;49.214;12.270;2023-08-12T06:46:40;22.90;55.70
49184;DHT22;35021;49.214;12.270;2023-08-12T06:49:07;22.90;55.90
49184;DHT22;35021;49.214;12.270;2023-08-12T06:51:34;22.90;55.90
49184;DHT22;35021;49.214;12.270;2023-08-12T06:54:00;22.90;56.00
49184;DHT22;35021;49.214;12.270;2023-08-12T06:56:27;23.00;56.80
49184;DHT22;35021;49.214;12.270;2023-08-12T06:58:54;22.90;56.10
49184;DHT22;35021;49.214;12.270;2023-08-12T07:01:21;23.00;56.20
49184;DHT22;35021;49.214;12.270;2023-08-12T07:03:48;23.00;56.20
49184;DHT22;35021;49.214;12.270;2023-08-12T07:06:15;23.00;56.30
49184;DHT22;35021;49.214;12.270;2023-08-12T07:08:42;23.00;56.30
49184;DHT22;35021;49.214;12.270;2023-08-12T07:11:09;23.00;56.40
49184;DHT22;35021;49.214;12.270;2023-08-12T07:13:35;23.00;56.40
49184;DHT22;35021;49.214;12.270;2023-08-12T07:16:02;23.00;56.40
49184;DHT22;35021;49.214;12.270;2023-08-12T07:18:29;23.00;56.60
49184;DHT22;35021;49.214;12.270;2023-08-12T07:20:57;23.00;56.80
49184;DHT22;35021;49.214;12.270;2023-08-12T07:23:27;23.00;56.80
49184;DHT22;35021;49.214;12.270;2023-08-12T07:25:54;23.00;56.80
49184;DHT22;35021;49.214;12.270;2023-08-12T07:28:21;23.00;56.90
49184;DHT22;35021;49.214;12.270;2023-08-12T07:30:48;23.00;57.00
49184;DHT22;35021;49.214;12.270;2023-08-12T07:33:16;23.00;57.10
49184;DHT22;35021;49.214;12.270;2023-08-12T07:35:43;22.90;57.10
49184;DHT22;35021;49.214;12.270;2023-08-12T07:38:10;22.90;57.20
49184;DHT22;35021;49.214;12.270;2023-08-12T07:40:36;22.90;57.30
49184;DHT22;35021;49.214;12.270;2023-08-12T07:43:07;22.90;57.40
49184;DHT22;35021;49.214;12.270;2023-08-12T07:45:34;22.90;57.40
49184;DHT22;35021;49.214;12.270;2023-08-12T07:48:01;22.90;57.50
49184;DHT22;35021;49.214;12.270;2023-08-12T07:50:28;22.90;57.60
49184;DHT22;35021;49.214;12.270;2023-08-12T07:52:54;22.90;57.70
49184;DHT22;35021;49.214;12.270;2023-08-12T07:55:21;22.90;57.80
49184;DHT22;35021;49.214;12.270;2023-08-12T07:57:52;22.90;57.80
49184;DHT22;35021;49.214;12.270;2023-08-12T08:00:19;22.90;57.90
49184;DHT22;35021;49.214;12.270;2023-08-12T08:02:46;22.90;57.90
49184;DHT22;35021;49.214;12.270;2023-08-12T08:05:13;22.90;58.00
49184;DHT22;35021;49.214;12.270;2023-08-12T08:07:40;22.90;58.10
49184;DHT22;35021;49.214;12.270;2023-08-12T08:10:07;22.90;58.00
49184;DHT22;35021;49.214;12.270;2023-08-12T08:12:34;23.00;57.90
49184;DHT22;35021;49.214;12.270;2023-08-12T08:15:01;23.10;57.80
49184;DHT22;35021;49.214;12.270;2023-08-12T08:17:30;23.10;57.60
49184;DHT22;35021;49.214;12.270;2023-08-12T08:19:57;23.20;57.40
49184;DHT22;35021;49.214;12.270;2023-08-12T08:22:23;23.20;57.30
49184;DHT22;35021;49.214;12.270;2023-08-12T08:24:51;23.20;57.20
49184;DHT22;35021;49.214;12.270;2023-08-12T08:27:17;23.20;57.00
49184;DHT22;35021;49.214;12.270;2023-08-12T08:29:44;23.30;56.90
49184;DHT22;35021;49.214;12.270;2023-08-12T08:32:11;23.30;56.80
49184;DHT22;35021;49.214;12.270;2023-08-12T08:34:38;23.40;56.70
49184;DHT22;35021;49.214;12.270;2023-08-12T08:37:05;23.40;56.50
49184;DHT22;35021;49.214;12.270;2023-08-12T08:39:32;23.40;56.40
49184;DHT22;35021;49.214;12.270;2023-08-12T08:41:59;23.40;56.30
49184;DHT22;35021;49.214;12.270;2023-08-12T08:44:29;23.40;56.20
49184;DHT22;35021;49.214;12.270;2023-08-12T08:46:58;23.40;56.10
49184;DHT22;35021;49.214;12.270;2023-08-12T08:49:26;23.40;56.00
49184;DHT22;35021;49.214;12.270;2023-08-12T08:51:55;23.40;56.00
49184;DHT22;35021;49.214;12.270;2023-08-12T08:54:23;23.40;56.10
49184;DHT22;35021;49.214;12.270;2023-08-12T08:56:49;23.40;56.00
49184;DHT22;35021;49.214;12.270;2023-08-12T08:59:25;23.40;56.00
49184;DHT22;35021;49.214;12.270;2023-08-12T09:01:53;23.30;55.90
49184;DHT22;35021;49.214;12.270;2023-08-12T09:04:25;23.30;55.90
49184;DHT22;35021;49.214;12.270;2023-08-12T09:06:53;23.30;56.00
49184;DHT22;35021;49.214;12.270;2023-08-12T09:09:21;23.30;55.90
49184;DHT22;35021;49.214;12.270;2023-08-12T09:11:51;23.30;55.90
49184;DHT22;35021;49.214;12.270;2023-08-12T09:14:19;23.30;55.90
49184;DHT22;35021;49.214;12.270;2023-08-12T09:16:46;23.30;55.90
49184;DHT22;35021;49.214;12.270;2023-08-12T09:19:13;23.20;55.80
49184;DHT22;35021;49.214;12.270;2023-08-12T09:21:41;23.20;55.90
49184;DHT22;35021;49.214;12.270;2023-08-12T09:24:08;23.20;55.80
49184;DHT22;35021;49.214;12.270;2023-08-12T09:26:35;23.20;55.80
49184;DHT22;35021;49.214;12.270;2023-08-12T09:29:02;23.20;56.50
49184;DHT22;35021;49.214;12.270;2023-08-12T09:31:30;23.20;55.80
49184;DHT22;35021;49.214;12.270;2023-08-12T09:34:03;23.20;55.80
49184;DHT22;35021;49.214;12.270;2023-08-12T09:36:30;23.20;55.80
49184;DHT22;35021;49.214;12.270;2023-08-12T09:38:57;23.20;55.80
49184;DHT22;35021;49.214;12.270;2023-08-12T09:41:26;23.20;55.80
49184;DHT22;35021;49.214;12.270;2023-08-12T09:43:53;23.20;55.80
49184;DHT22;35021;49.214;12.270;2023-08-12T09:46:21;23.20;55.70
49184;DHT22;35021;49.214;12.270;2023-08-12T09:48:51;23.20;55.70
49184;DHT22;35021;49.214;12.270;2023-08-12T09:51:21;23.20;55.70
49184;DHT22;35021;49.214;12.270;2023-08-12T09:53:49;23.10;55.60
49184;DHT22;35021;49.214;12.270;2023-08-12T09:56:19;23.20;55.70
49184;DHT22;35021;49.214;12.270;2023-08-12T09:58:50;23.20;55.60
49184;DHT22;35021;49.214;12.270;2023-08-12T10:01:19;23.20;55.60
49184;DHT22;35021;49.214;12.270;2023-08-12T10:03:50;23.20;55.60
49184;DHT22;35021;49.214;12.270;2023-08-12T10:06:18;23.20;55.60
49184;DHT22;35021;49.214;12.270;2023-08-12T10:08:46;23.20;55.60
49184;DHT22;35021;49.214;12.270;2023-08-12T10:11:14;23.20;55.60
49184;DHT22;35021;49.214;12.270;2023-08-12T10:13:41;23.20;55.60
49184;DHT22;35021;49.214;12.270;2023-08-12T10:16:09;23.20;55.60
49184;DHT22;35021;49.214;12.270;2023-08-12T10:18:38;23.20;55.60
49184;DHT22;35021;49.214;12.270;2023-08-12T10:21:09;23.20;55.60
49184;DHT22;35021;49.214;12.270;2023-08-12T10:23:37;23.20;55.60
49184;DHT22;35021;49.214;12.270;2023-08-12T10:26:05;23.20;55.60
49184;DHT22;35021;49.214;12.270;2023-08-12T10:28:34;23.20;55.60
49184;DHT22;35021;49.214;12.270;2023-08-12T10:31:07;23.20;55.60
49184;DHT22;35021;49.214;12.270;2023-08-12T10:33:38;23.20;55.60
49184;DHT22;35021;49.214;12.270;2023-08-12T10:36:05;23.20;55.60
49184;DHT22;35021;49.214;12.270;2023-08-12T10:38:33;23.20;55.60
49184;DHT22;35021;49.214;12.270;2023-08-12T10:43:56;23.20;55.60
49184;DHT22;35021;49.214;12.270;2023-08-12T10:46:31;23.20;55.60
49184;DHT22;35021;49.214;12.270;2023-08-12T10:49:06;23.20;55.60
49184;DHT22;35021;49.214;12.270;2023-08-12T10:51:41;23.20;55.50
49184;DHT22;35021;49.214;12.270;2023-08-12T10:54:24;23.20;55.50
49184;DHT22;35021;49.214;12.270;2023-08-12T11:02:21;23.20;55.60
49184;DHT22;35021;49.214;12.270;2023-08-12T11:07:27;23.20;55.60
49184;DHT22;35021;49.214;12.270;2023-08-12T11:09:59;23.20;55.60
49184;DHT22;35021;49.214;12.270;2023-08-12T11:12:30;23.20;55.60
49184;DHT22;35021;49.214;12.270;2023-08-12T11:14:58;23.20;55.50
49184;DHT22;35021;49.214;12.270;2023-08-12T11:17:36;23.20;55.50
49184;DHT22;35021;49.214;12.270;2023-08-12T11:20:05;23.20;55.50
49184;DHT22;35021;49.214;12.270;2023-08-12T11:22:36;23.20;55.50
49184;DHT22;35021;49.214;12.270;2023-08-12T11:25:05;23.20;55.50
49184;DHT22;35021;49.214;12.270;2023-08-12T11:30:05;23.20;55.60
49184;DHT22;35021;49.214;12.270;2023-08-12T11:32:32;23.20;55.60
49184;DHT22;35021;49.214;12.270;2023-08-12T11:34:59;23.10;55.50
49184;DHT22;35021;49.214;12.270;2023-08-12T11:37:26;23.20;55.60
49184;DHT22;35021;49.214;12.270;2023-08-12T11:39:54;23.20;55.50
49184;DHT22;35021;49.214;12.270;2023-08-12T11:42:21;23.20;55.50
49184;DHT22;35021;49.214;12.270;2023-08-12T11:44:47;23.20;55.50
49184;DHT22;35021;49.214;12.270;2023-08-12T11:47:14;23.20;55.50
49184;DHT22;35021;49.214;12.270;2023-08-12T11:49:45;23.20;55.50
49184;DHT22;35021;49.214;12.270;2023-08-12T11:52:13;23.20;55.40
49184;DHT22;35021;49.214;12.270;2023-08-12T11:54:41;23.20;55.40
49184;DHT22;35021;49.214;12.270;2023-08-12T11:57:08;23.20;55.30
49184;DHT22;35021;49.214;12.270;2023-08-12T11:59:36;23.20;55.30
49184;DHT22;35021;49.214;12.270;2023-08-12T12:02:04;23.20;55.20
49184;DHT22;35021;49.214;12.270;2023-08-12T12:04:31;23.30;55.30
49184;DHT22;35021;49.214;12.270;2023-08-12T12:06:58;23.30;55.30
49184;DHT22;35021;49.214;12.270;2023-08-12T12:09:26;23.40;55.30
49184;DHT22;35021;49.214;12.270;2023-08-12T12:11:56;23.40;55.30
49184;DHT22;35021;49.214;12.270;2023-08-12T12:14:24;23.40;55.20
49184;DHT22;35021;49.214;12.270;2023-08-12T12:16:52;23.40;55.20
49184;DHT22;35021;49.214;12.270;2023-08-12T12:19:23;23.40;55.30
49184;DHT22;35021;49.214;12.270;2023-08-12T12:21:51;23.50;55.30
49184;DHT22;35021;49.214;12.270;2023-08-12T12:24:19;23.50;55.20
49184;DHT22;35021;49.214;12.270;2023-08-12T12:26:46;23.50;55.20
49184;DHT22;35021;49.214;12.270;2023-08-12T12:29:13;23.50;55.10
49184;DHT22;35021;49.214;12.270;2023-08-12T12:31:41;23.50;55.00
49184;DHT22;35021;49.214;12.270;2023-08-12T12:34:08;23.50;55.00
49184;DHT22;35021;49.214;12.270;2023-08-12T12:36:38;23.60;54.90
49184;DHT22;35021;49.214;12.270;2023-08-12T12:39:06;23.60;54.80
49184;DHT22;35021;49.214;12.270;2023-08-12T12:41:33;23.60;54.80
49184;DHT22;35021;49.214;12.270;2023-08-12T12:44:00;23.60;54.70
49184;DHT22;35021;49.214;12.270;2023-08-12T12:46:28;23.60;54.70
49184;DHT22;35021;49.214;12.270;2023-08-12T12:48:55;23.70;54.70
49184;DHT22;35021;49.214;12.270;2023-08-12T12:51:22;23.70;54.70
49184;DHT22;35021;49.214;12.270;2023-08-12T12:53:49;23.70;54.60
49184;DHT22;35021;49.214;12.270;2023-08-12T12:56:16;23.70;54.60
49184;DHT22;35021;49.214;12.270;2023-08-12T12:58:43;23.70;54.50
49184;DHT22;35021;49.214;12.270;2023-08-12T13:01:10;23.70;54.50
49184;DHT22;35021;49.214;12.270;2023-08-12T13:03:37;23.70;54.40
49184;DHT22;35021;49.214;12.270;2023-08-12T13:06:05;23.80;54.40
49184;DHT22;35021;49.214;12.270;2023-08-12T13:08:32;23.80;54.50
49184;DHT22;35021;49.214;12.270;2023-08-12T13:10:59;23.80;54.40
49184;DHT22;35021;49.214;12.270;2023-08-12T13:13:25;23.80;54.40
49184;DHT22;35021;49.214;12.270;2023-08-12T13:15:52;23.80;54.30
49184;DHT22;35021;49.214;12.270;2023-08-12T13:18:19;23.80;54.30
49184;DHT22;35021;49.214;12.270;2023-08-12T13:20:46;23.80;54.30
49184;DHT22;35021;49.214;12.270;2023-08-12T13:23:14;23.80;54.20
49184;DHT22;35021;49.214;12.270;2023-08-12T13:25:41;23.80;54.20
49184;DHT22;35021;49.214;12.270;2023-08-12T13:28:08;23.80;54.20
49184;DHT22;35021;49.214;12.270;2023-08-12T13:30:35;23.80;54.20
49184;DHT22;35021;49.214;12.270;2023-08-12T13:33:02;23.80;54.20
49184;DHT22;35021;49.214;12.270;2023-08-12T13:35:30;23.90;54.20
49184;DHT22;35021;49.214;12.270;2023-08-12T13:37:57;23.90;54.20
49184;DHT22;35021;49.214;12.270;2023-08-12T13:40:24;23.90;54.10
49184;DHT22;35021;49.214;12.270;2023-08-12T13:42:51;23.90;54.10
49184;DHT22;35021;49.214;12.270;2023-08-12T13:45:17;23.90;54.10
49184;DHT22;35021;49.214;12.270;2023-08-12T13:47:44;23.90;54.10
49184;DHT22;35021;49.214;12.270;2023-08-12T13:50:11;23.90;54.00
49184;DHT22;35021;49.214;12.270;2023-08-12T13:52:40;23.90;54.00
49184;DHT22;35021;49.214;12.270;2023-08-12T13:55:07;23.90;54.00
49184;DHT22;35021;49.214;12.270;2023-08-12T13:57:34;23.90;54.00
49184;DHT22;35021;49.214;12.270;2023-08-12T14:00:00;24.00;54.00
49184;DHT22;35021;49.214;12.270;2023-08-12T14:02:28;24.00;54.00
49184;DHT22;35021;49.214;12.270;2023-08-12T14:04:55;24.00;54.70
49184;DHT22;35021;49.214;12.270;2023-08-12T14:07:22;23.90;53.80
49184;DHT22;35021;49.214;12.270;2023-08-12T14:09:49;24.00;53.90
49184;DHT22;35021;49.214;12.270;2023-08-12T14:12:16;24.00;53.90
49184;DHT22;35021;49.214;12.270;2023-08-12T14:14:43;24.00;54.00
49184;DHT22;35021;49.214;12.270;2023-08-12T14:17:09;24.00;54.00
49184;DHT22;35021;49.214;12.270;2023-08-12T14:19:40;24.00;54.00
49184;DHT22;35021;49.214;12.270;2023-08-12T14:22:08;24.00;54.00
49184;DHT22;35021;49.214;12.270;2023-08-12T14:24:35;24.00;53.90
49184;DHT22;35021;49.214;12.270;2023-08-12T14:27:02;24.00;54.00
49184;DHT22;35021;49.214;12.270;2023-08-12T14:29:30;24.00;53.90
49184;DHT22;35021;49.214;12.270;2023-08-12T14:31:58;24.00;53.90
49184;DHT22;35021;49.214;12.270;2023-08-12T14:34:25;24.00;53.90
49184;DHT22;35021;49.214;12.270;2023-08-12T14:36:51;24.00;53.90
49184;DHT22;35021;49.214;12.270;2023-08-12T14:39:18;24.00;53.80
49184;DHT22;35021;49.214;12.270;2023-08-12T14:41:45;24.10;53.90
49184;DHT22;35021;49.214;12.270;2023-08-12T14:44:12;24.00;53.70
49184;DHT22;35021;49.214;12.270;2023-08-12T14:46:39;24.10;53.80
49184;DHT22;35021;49.214;12.270;2023-08-12T14:49:06;24.00;53.80
49184;DHT22;35021;49.214;12.270;2023-08-12T14:51:32;24.10;53.80
49184;DHT22;35021;49.214;12.270;2023-08-12T14:53:59;24.10;53.80
49184;DHT22;35021;49.214;12.270;2023-08-12T14:56:26;24.10;53.90
49184;DHT22;35021;49.214;12.270;2023-08-12T14:58:53;24.10;53.90
49184;DHT22;35021;49.214;12.270;2023-08-12T15:01:20;24.10;53.90
49184;DHT22;35021;49.214;12.270;2023-08-12T15:03:48;24.10;53.90
49184;DHT22;35021;49.214;12.270;2023-08-12T15:06:15;24.10;53.90
49184;DHT22;35021;49.214;12.270;2023-08-12T15:08:42;24.10;53.90
49184;DHT22;35021;49.214;12.270;2023-08-12T15:11:08;24.10;53.90
49184;DHT22;35021;49.214;12.270;2023-08-12T15:13:35;24.10;54.00
49184;DHT22;35021;49.214;12.270;2023-08-12T15:16:02;24.10;54.00
49184;DHT22;35021;49.214;12.270;2023-08-12T15:18:29;24.10;54.00
49184;DHT22;35021;49.214;12.270;2023-08-12T15:20:56;24.10;54.10
49184;DHT22;35021;49.214;12.270;2023-08-12T15:23:23;24.10;54.00
49184;DHT22;35021;49.214;12.270;2023-08-12T15:25:50;24.10;54.00
49184;DHT22;35021;49.214;12.270;2023-08-12T15:28:16;24.10;54.00
49184;DHT22;35021;49.214;12.270;2023-08-12T15:30:43;24.10;54.10